sensor_id;sensor_type;location;lat;lon;timestamp;temperature;humidity
29417;DHT22;28421;51.030;4.006;2022-07-10T00:01:32;14.90;99.90
29417;DHT22;28421;51.030;4.006;2022-07-10T00:03:58;14.20;99.90
29417;DHT22;28421;51.030;4.006;2022-07-10T00:06:23;14.20;99.90
29417;DHT22;28421;51.030;4.006;2022-07-10T00:08:49;14.30;99.90
29417;DHT22;28421;51.030;4.006;2022-07-10T00:13:41;14.30;99.90
29417;DHT22;28421;51.030;4.006;2022-07-10T00:16:06;14.10;99.90
29417;DHT22;28421;51.030;4.006;2022-07-10T00:18:32;14.30;99.90
29417;DHT22;28421;51.030;4.006;2022-07-10T00:20:58;14.30;99.90
29417;DHT22;28421;51.030;4.006;2022-07-10T00:23:24;14.00;99.90
29417;DHT22;28421;51.030;4.006;2022-07-10T00:25:49;14.10;99.90
29417;DHT22;28421;51.030;4.006;2022-07-10T00:28:15;14.00;99.90
29417;DHT22;28421;51.030;4.006;2022-07-10T00:30:40;14.20;99.90
29417;DHT22;28421;51.030;4.006;2022-07-10T00:33:07;14.00;99.90
29417;DHT22;28421;51.030;4.006;2022-07-10T00:35:32;13.90;99.90
29417;DHT22;28421;51.030;4.006;2022-07-10T00:37:58;13.70;99.90
29417;DHT22;28421;51.030;4.006;2022-07-10T00:40:24;13.90;99.90
29417;DHT22;28421;51.030;4.006;2022-07-10T00:42:50;14.10;99.90
29417;DHT22;28421;51.030;4.006;2022-07-10T00:45:15;14.10;99.90
29417;DHT22;28421;51.030;4.006;2022-07-10T00:47:41;14.00;99.90
29417;DHT22;28421;51.030;4.006;2022-07-10T00:50:08;13.90;99.90
29417;DHT22;28421;51.030;4.006;2022-07-10T00:52:35;13.80;99.90
29417;DHT22;28421;51.030;4.006;2022-07-10T00:55:07;13.90;99.90
29417;DHT22;28421;51.030;4.006;2022-07-10T00:57:35;13.50;99.90
29417;DHT22;28421;51.030;4.006;2022-07-10T01:00:01;13.70;99.90
29417;DHT22;28421;51.030;4.006;2022-07-10T01:02:27;13.20;99.90
29417;DHT22;28421;51.030;4.006;2022-07-10T01:04:52;13.50;99.90
29417;DHT22;28421;51.030;4.006;2022-07-10T01:07:19;13.30;99.90
29417;DHT22;28421;51.030;4.006;2022-07-10T01:09:44;13.20;99.90
29417;DHT22;28421;51.030;4.006;2022-07-10T01:12:11;13.20;99.90
29417;DHT22;28421;51.030;4.006;2022-07-10T01:14:37;13.10;99.90
29417;DHT22;28421;51.030;4.006;2022-07-10T01:17:07;13.30;99.90
29417;DHT22;28421;51.030;4.006;2022-07-10T01:19:34;13.30;99.90
29417;DHT22;28421;51.030;4.006;2022-07-10T01:22:00;13.20;99.90
29417;DHT22;28421;51.030;4.006;2022-07-10T01:26:52;12.70;99.90
29417;DHT22;28421;51.030;4.006;2022-07-10T01:29:17;12.90;99.90
29417;DHT22;28421;51.030;4.006;2022-07-10T01:34:10;13.10;99.90
29417;DHT22;28421;51.030;4.006;2022-07-10T01:36:37;13.40;99.90
29417;DHT22;28421;51.030;4.006;2022-07-10T01:39:03;13.40;99.90
29417;DHT22;28421;51.030;4.006;2022-07-10T01:41:29;13.60;99.90
29417;DHT22;28421;51.030;4.006;2022-07-10T01:43:55;13.70;99.90
29417;DHT22;28421;51.030;4.006;2022-07-10T01:46:21;13.70;99.90
29417;DHT22;28421;51.030;4.006;2022-07-10T01:48:47;13.60;99.90
29417;DHT22;28421;51.030;4.006;2022-07-10T01:51:13;13.20;99.90
29417;DHT22;28421;51.030;4.006;2022-07-10T01:53:39;13.00;99.90
29417;DHT22;28421;51.030;4.006;2022-07-10T01:56:07;12.80;99.90
29417;DHT22;28421;51.030;4.006;2022-07-10T01:58:33;13.10;99.90
29417;DHT22;28421;51.030;4.006;2022-07-10T02:01:00;13.30;99.90
29417;DHT22;28421;51.030;4.006;2022-07-10T02:03:26;13.00;99.90
29417;DHT22;28421;51.030;4.006;2022-07-10T02:08:36;12.90;99.90
29417;DHT22;28421;51.030;4.006;2022-07-10T02:13:28;12.90;99.90
29417;DHT22;28421;51.030;4.006;2022-07-10T02:15:57;12.60;99.90
29417;DHT22;28421;51.030;4.006;2022-07-10T02:20:50;12.90;99.90
29417;DHT22;28421;51.030;4.006;2022-07-10T02:23:16;13.30;99.90
29417;DHT22;28421;51.030;4.006;2022-07-10T02:25:41;13.60;99.90
29417;DHT22;28421;51.030;4.006;2022-07-10T02:28:10;13.10;99.90
29417;DHT22;28421;51.030;4.006;2022-07-10T02:30:36;12.80;99.90
29417;DHT22;28421;51.030;4.006;2022-07-10T02:33:02;13.00;99.90
29417;DHT22;28421;51.030;4.006;2022-07-10T02:35:28;12.90;99.90
29417;DHT22;28421;51.030;4.006;2022-07-10T02:37:54;12.90;99.90
29417;DHT22;28421;51.030;4.006;2022-07-10T02:40:19;12.60;99.90
29417;DHT22;28421;51.030;4.006;2022-07-10T02:45:11;12.80;99.90
29417;DHT22;28421;51.030;4.006;2022-07-10T02:50:03;12.80;99.90
29417;DHT22;28421;51.030;4.006;2022-07-10T02:54:57;12.90;99.90
29417;DHT22;28421;51.030;4.006;2022-07-10T02:57:23;12.40;99.90
29417;DHT22;28421;51.030;4.006;2022-07-10T02:59:48;12.90;99.90
29417;DHT22;28421;51.030;4.006;2022-07-10T03:02:14;12.60;99.90
29417;DHT22;28421;51.030;4.006;2022-07-10T03:04:40;12.50;99.90
29417;DHT22;28421;51.030;4.006;2022-07-10T03:19:18;12.10;99.90
29417;DHT22;28421;51.030;4.006;2022-07-10T03:21:43;12.20;99.90
29417;DHT22;28421;51.030;4.006;2022-07-10T03:24:10;12.70;99.90
29417;DHT22;28421;51.030;4.006;2022-07-10T03:29:01;12.30;99.90
29417;DHT22;28421;51.030;4.006;2022-07-10T03:31:27;12.20;99.90
29417;DHT22;28421;51.030;4.006;2022-07-10T03:33:53;12.30;99.90
29417;DHT22;28421;51.030;4.006;2022-07-10T03:36:19;12.80;99.90
29417;DHT22;28421;51.030;4.006;2022-07-10T03:38:44;12.80;99.90
29417;DHT22;28421;51.030;4.006;2022-07-10T03:41:12;13.00;99.90
29417;DHT22;28421;51.030;4.006;2022-07-10T03:43:38;12.40;99.90
29417;DHT22;28421;51.030;4.006;2022-07-10T03:46:04;12.40;99.90
29417;DHT22;28421;51.030;4.006;2022-07-10T03:50:56;12.90;99.90
29417;DHT22;28421;51.030;4.006;2022-07-10T03:53:21;12.60;99.90
29417;DHT22;28421;51.030;4.006;2022-07-10T03:58:14;12.90;99.90
29417;DHT22;28421;51.030;4.006;2022-07-10T04:03:08;12.30;99.90
29417;DHT22;28421;51.030;4.006;2022-07-10T04:05:34;12.40;99.90
29417;DHT22;28421;51.030;4.006;2022-07-10T04:08:01;12.30;99.90
29417;DHT22;28421;51.030;4.006;2022-07-10T04:10:28;12.50;99.90
29417;DHT22;28421;51.030;4.006;2022-07-10T04:12:54;12.50;99.90
29417;DHT22;28421;51.030;4.006;2022-07-10T04:15:21;13.00;99.90
29417;DHT22;28421;51.030;4.006;2022-07-10T04:20:13;12.70;99.90
29417;DHT22;28421;51.030;4.006;2022-07-10T04:25:06;12.60;99.90
29417;DHT22;28421;51.030;4.006;2022-07-10T04:29:58;13.00;99.90
29417;DHT22;28421;51.030;4.006;2022-07-10T04:32:24;12.50;99.90
29417;DHT22;28421;51.030;4.006;2022-07-10T04:34:50;12.80;99.90
29417;DHT22;28421;51.030;4.006;2022-07-10T04:39:42;13.20;99.90
29417;DHT22;28421;51.030;4.006;2022-07-10T04:44:35;13.20;99.90
29417;DHT22;28421;51.030;4.006;2022-07-10T04:47:05;13.60;99.90
29417;DHT22;28421;51.030;4.006;2022-07-10T04:49:31;13.50;99.90
29417;DHT22;28421;51.030;4.006;2022-07-10T04:51:58;13.00;99.90
29417;DHT22;28421;51.030;4.006;2022-07-10T04:56:49;12.90;99.90
29417;DHT22;28421;51.030;4.006;2022-07-10T04:59:15;13.30;99.90
29417;DHT22;28421;51.030;4.006;2022-07-10T05:01:41;13.30;99.90
29417;DHT22;28421;51.030;4.006;2022-07-10T05:04:07;13.90;99.90
29417;DHT22;28421;51.030;4.006;2022-07-10T05:09:00;13.70;99.90
29417;DHT22;28421;51.030;4.006;2022-07-10T05:11:26;13.60;99.90
29417;DHT22;28421;51.030;4.006;2022-07-10T05:13:52;13.70;99.90
29417;DHT22;28421;51.030;4.006;2022-07-10T05:16:18;13.90;99.90
29417;DHT22;28421;51.030;4.006;2022-07-10T05:18:44;14.00;99.90
29417;DHT22;28421;51.030;4.006;2022-07-10T05:21:10;14.40;99.90
29417;DHT22;28421;51.030;4.006;2022-07-10T05:23:38;14.50;99.90
29417;DHT22;28421;51.030;4.006;2022-07-10T05:26:04;14.50;99.90
29417;DHT22;28421;51.030;4.006;2022-07-10T05:28:30;14.30;99.90
29417;DHT22;28421;51.030;4.006;2022-07-10T05:33:21;14.70;99.90
29417;DHT22;28421;51.030;4.006;2022-07-10T05:40:39;14.70;99.90
29417;DHT22;28421;51.030;4.006;2022-07-10T05:43:05;14.80;99.90
29417;DHT22;28421;51.030;4.006;2022-07-10T05:45:31;14.90;99.90
29417;DHT22;28421;51.030;4.006;2022-07-10T05:50:23;15.30;99.90
29417;DHT22;28421;51.030;4.006;2022-07-10T05:52:49;15.10;99.90
29417;DHT22;28421;51.030;4.006;2022-07-10T05:55:14;15.50;99.90
29417;DHT22;28421;51.030;4.006;2022-07-10T05:57:40;15.50;99.90
29417;DHT22;28421;51.030;4.006;2022-07-10T06:00:07;15.60;99.90
29417;DHT22;28421;51.030;4.006;2022-07-10T06:02:39;15.00;99.90
29417;DHT22;28421;51.030;4.006;2022-07-10T06:05:06;15.20;99.90
29417;DHT22;28421;51.030;4.006;2022-07-10T06:07:32;15.30;99.90
29417;DHT22;28421;51.030;4.006;2022-07-10T06:09:58;16.20;99.90
29417;DHT22;28421;51.030;4.006;2022-07-10T06:12:24;15.10;99.90
29417;DHT22;28421;51.030;4.006;2022-07-10T06:14:49;15.60;99.90
29417;DHT22;28421;51.030;4.006;2022-07-10T06:17:15;15.50;99.90
29417;DHT22;28421;51.030;4.006;2022-07-10T06:19:41;15.60;99.90
29417;DHT22;28421;51.030;4.006;2022-07-10T06:22:07;15.70;99.90
29417;DHT22;28421;51.030;4.006;2022-07-10T06:24:51;15.80;99.90
29417;DHT22;28421;51.030;4.006;2022-07-10T06:27:17;15.50;99.90
29417;DHT22;28421;51.030;4.006;2022-07-10T06:29:43;15.90;99.90
29417;DHT22;28421;51.030;4.006;2022-07-10T06:32:08;16.00;99.90
29417;DHT22;28421;51.030;4.006;2022-07-10T06:37:01;16.20;99.90
29417;DHT22;28421;51.030;4.006;2022-07-10T06:39:31;16.10;99.90
29417;DHT22;28421;51.030;4.006;2022-07-10T06:41:59;16.30;99.90
29417;DHT22;28421;51.030;4.006;2022-07-10T06:44:27;16.50;99.90
29417;DHT22;28421;51.030;4.006;2022-07-10T06:46:52;16.70;99.90
29417;DHT22;28421;51.030;4.006;2022-07-10T06:49:36;17.20;99.90
29417;DHT22;28421;51.030;4.006;2022-07-10T06:52:02;16.90;99.90
29417;DHT22;28421;51.030;4.006;2022-07-10T06:56:54;17.60;99.90
29417;DHT22;28421;51.030;4.006;2022-07-10T06:59:20;17.20;99.90
29417;DHT22;28421;51.030;4.006;2022-07-10T07:01:46;17.50;99.90
29417;DHT22;28421;51.030;4.006;2022-07-10T07:04:11;17.50;99.90
29417;DHT22;28421;51.030;4.006;2022-07-10T07:06:37;17.70;99.90
29417;DHT22;28421;51.030;4.006;2022-07-10T07:09:03;17.40;99.90
29417;DHT22;28421;51.030;4.006;2022-07-10T07:11:28;17.50;99.90
29417;DHT22;28421;51.030;4.006;2022-07-10T07:13:54;17.50;99.90
29417;DHT22;28421;51.030;4.006;2022-07-10T07:16:20;17.30;99.90
29417;DHT22;28421;51.030;4.006;2022-07-10T07:21:21;17.50;99.90
29417;DHT22;28421;51.030;4.006;2022-07-10T07:24:05;17.60;99.90
29417;DHT22;28421;51.030;4.006;2022-07-10T07:26:31;17.40;99.90
29417;DHT22;28421;51.030;4.006;2022-07-10T07:31:23;17.30;99.90
29417;DHT22;28421;51.030;4.006;2022-07-10T07:41:06;17.80;99.90
29417;DHT22;28421;51.030;4.006;2022-07-10T07:43:32;18.10;99.90
29417;DHT22;28421;51.030;4.006;2022-07-10T07:45:58;18.10;99.90
29417;DHT22;28421;51.030;4.006;2022-07-10T07:48:23;18.10;99.90
29417;DHT22;28421;51.030;4.006;2022-07-10T07:50:49;18.10;99.90
29417;DHT22;28421;51.030;4.006;2022-07-10T07:53:15;18.20;99.90
29417;DHT22;28421;51.030;4.006;2022-07-10T07:55:41;18.40;99.90
29417;DHT22;28421;51.030;4.006;2022-07-10T07:58:06;18.20;99.90
29417;DHT22;28421;51.030;4.006;2022-07-10T08:00:33;18.20;99.90
29417;DHT22;28421;51.030;4.006;2022-07-10T08:02:59;18.30;99.90
29417;DHT22;28421;51.030;4.006;2022-07-10T08:05:26;18.30;99.90
29417;DHT22;28421;51.030;4.006;2022-07-10T08:07:53;18.80;99.90
29417;DHT22;28421;51.030;4.006;2022-07-10T08:10:22;18.80;99.90
29417;DHT22;28421;51.030;4.006;2022-07-10T08:15:18;19.20;99.90
29417;DHT22;28421;51.030;4.006;2022-07-10T08:17:49;19.50;99.90
29417;DHT22;28421;51.030;4.006;2022-07-10T08:20:15;19.40;99.90
29417;DHT22;28421;51.030;4.006;2022-07-10T08:22:41;19.30;99.90
29417;DHT22;28421;51.030;4.006;2022-07-10T08:25:08;19.30;99.90
29417;DHT22;28421;51.030;4.006;2022-07-10T08:27:34;19.90;99.90
29417;DHT22;28421;51.030;4.006;2022-07-10T08:30:00;19.60;99.90
29417;DHT22;28421;51.030;4.006;2022-07-10T08:39:46;20.50;99.90
29417;DHT22;28421;51.030;4.006;2022-07-10T08:42:11;20.50;99.90
29417;DHT22;28421;51.030;4.006;2022-07-10T08:44:38;20.90;99.90
29417;DHT22;28421;51.030;4.006;2022-07-10T08:47:04;20.50;99.90
29417;DHT22;28421;51.030;4.006;2022-07-10T08:49:31;20.60;99.90
29417;DHT22;28421;51.030;4.006;2022-07-10T08:52:49;20.60;99.90
29417;DHT22;28421;51.030;4.006;2022-07-10T08:55:04;20.70;99.90
29417;DHT22;28421;51.030;4.006;2022-07-10T08:57:30;21.00;99.90
29417;DHT22;28421;51.030;4.006;2022-07-10T08:59:57;20.70;99.90
29417;DHT22;28421;51.030;4.006;2022-07-10T09:02:23;20.80;99.90
29417;DHT22;28421;51.030;4.006;2022-07-10T09:04:48;21.00;99.90
29417;DHT22;28421;51.030;4.006;2022-07-10T09:07:15;20.60;99.90
29417;DHT22;28421;51.030;4.006;2022-07-10T09:09:56;20.80;99.90
29417;DHT22;28421;51.030;4.006;2022-07-10T09:17:15;21.20;99.90
29417;DHT22;28421;51.030;4.006;2022-07-10T09:19:42;21.10;99.90
29417;DHT22;28421;51.030;4.006;2022-07-10T09:22:09;21.00;99.90
29417;DHT22;28421;51.030;4.006;2022-07-10T09:27:02;21.90;99.90
29417;DHT22;28421;51.030;4.006;2022-07-10T09:29:33;21.70;99.90
29417;DHT22;28421;51.030;4.006;2022-07-10T09:34:42;21.20;99.90
29417;DHT22;28421;51.030;4.006;2022-07-10T09:37:25;20.80;99.90
29417;DHT22;28421;51.030;4.006;2022-07-10T09:42:36;21.90;99.90
29417;DHT22;28421;51.030;4.006;2022-07-10T09:47:53;22.90;99.90
29417;DHT22;28421;51.030;4.006;2022-07-10T09:50:31;23.10;99.90
29417;DHT22;28421;51.030;4.006;2022-07-10T09:55:28;22.30;99.90
29417;DHT22;28421;51.030;4.006;2022-07-10T09:58:03;22.50;99.90
29417;DHT22;28421;51.030;4.006;2022-07-10T10:00:31;23.30;99.90
29417;DHT22;28421;51.030;4.006;2022-07-10T10:05:32;22.90;99.90
29417;DHT22;28421;51.030;4.006;2022-07-10T10:08:06;23.00;99.90
29417;DHT22;28421;51.030;4.006;2022-07-10T10:10:36;21.60;99.90
29417;DHT22;28421;51.030;4.006;2022-07-10T10:13:08;21.60;99.90
29417;DHT22;28421;51.030;4.006;2022-07-10T10:15:36;21.20;99.90
29417;DHT22;28421;51.030;4.006;2022-07-10T10:18:02;21.50;99.90
29417;DHT22;28421;51.030;4.006;2022-07-10T10:20:30;21.90;99.90
29417;DHT22;28421;51.030;4.006;2022-07-10T10:23:09;21.90;99.90
29417;DHT22;28421;51.030;4.006;2022-07-10T10:28:06;22.30;99.90
29417;DHT22;28421;51.030;4.006;2022-07-10T10:30:33;22.40;99.90
29417;DHT22;28421;51.030;4.006;2022-07-10T10:35:45;22.70;99.90
29417;DHT22;28421;51.030;4.006;2022-07-10T10:38:13;22.90;99.90
29417;DHT22;28421;51.030;4.006;2022-07-10T10:43:19;22.90;99.90
29417;DHT22;28421;51.030;4.006;2022-07-10T10:45:46;23.00;99.90
29417;DHT22;28421;51.030;4.006;2022-07-10T10:48:16;23.00;99.90
29417;DHT22;28421;51.030;4.006;2022-07-10T10:50:47;23.20;99.90
29417;DHT22;28421;51.030;4.006;2022-07-10T10:58:41;23.70;99.90
29417;DHT22;28421;51.030;4.006;2022-07-10T11:06:47;23.30;99.90
29417;DHT22;28421;51.030;4.006;2022-07-10T11:09:29;23.60;99.90
29417;DHT22;28421;51.030;4.006;2022-07-10T11:12:04;23.60;99.90
29417;DHT22;28421;51.030;4.006;2022-07-10T11:14:45;23.10;99.30
29417;DHT22;28421;51.030;4.006;2022-07-10T11:17:13;23.10;99.60
29417;DHT22;28421;51.030;4.006;2022-07-10T11:30:15;24.10;99.90
29417;DHT22;28421;51.030;4.006;2022-07-10T11:32:40;24.30;99.60
29417;DHT22;28421;51.030;4.006;2022-07-10T11:35:13;24.20;99.50
29417;DHT22;28421;51.030;4.006;2022-07-10T11:37:52;23.90;99.90
29417;DHT22;28421;51.030;4.006;2022-07-10T11:40:18;24.10;99.80
29417;DHT22;28421;51.030;4.006;2022-07-10T11:42:52;24.10;99.60
29417;DHT22;28421;51.030;4.006;2022-07-10T11:45:29;24.00;99.90
29417;DHT22;28421;51.030;4.006;2022-07-10T11:47:55;23.90;99.90
29417;DHT22;28421;51.030;4.006;2022-07-10T11:50:22;24.30;99.00
29417;DHT22;28421;51.030;4.006;2022-07-10T11:52:48;24.40;99.90
29417;DHT22;28421;51.030;4.006;2022-07-10T11:55:15;25.80;99.90
29417;DHT22;28421;51.030;4.006;2022-07-10T11:57:41;25.60;98.20
29417;DHT22;28421;51.030;4.006;2022-07-10T12:00:24;24.40;99.00
29417;DHT22;28421;51.030;4.006;2022-07-10T12:02:51;24.80;99.70
29417;DHT22;28421;51.030;4.006;2022-07-10T12:05:52;25.10;99.90
29417;DHT22;28421;51.030;4.006;2022-07-10T12:08:18;25.30;99.90
29417;DHT22;28421;51.030;4.006;2022-07-10T12:13:14;24.70;99.90
29417;DHT22;28421;51.030;4.006;2022-07-10T12:15:45;25.30;99.90
29417;DHT22;28421;51.030;4.006;2022-07-10T12:18:21;24.70;99.90
29417;DHT22;28421;51.030;4.006;2022-07-10T12:20:49;24.70;98.60
29417;DHT22;28421;51.030;4.006;2022-07-10T12:23:16;24.70;98.80
29417;DHT22;28421;51.030;4.006;2022-07-10T12:25:47;24.90;98.00
29417;DHT22;28421;51.030;4.006;2022-07-10T12:28:17;24.30;98.50
29417;DHT22;28421;51.030;4.006;2022-07-10T12:30:47;24.30;98.30
29417;DHT22;28421;51.030;4.006;2022-07-10T12:33:18;24.70;98.80
29417;DHT22;28421;51.030;4.006;2022-07-10T12:38:25;24.80;98.30
29417;DHT22;28421;51.030;4.006;2022-07-10T12:41:11;24.70;98.60
29417;DHT22;28421;51.030;4.006;2022-07-10T12:46:17;24.90;99.90
29417;DHT22;28421;51.030;4.006;2022-07-10T12:49:05;25.10;99.90
29417;DHT22;28421;51.030;4.006;2022-07-10T12:51:33;25.80;99.90
29417;DHT22;28421;51.030;4.006;2022-07-10T12:53:59;25.00;99.90
29417;DHT22;28421;51.030;4.006;2022-07-10T12:56:37;24.90;99.90
29417;DHT22;28421;51.030;4.006;2022-07-10T12:59:11;25.20;97.80
29417;DHT22;28421;51.030;4.006;2022-07-10T13:01:45;25.20;97.90
29417;DHT22;28421;51.030;4.006;2022-07-10T13:04:11;24.10;97.70
29417;DHT22;28421;51.030;4.006;2022-07-10T13:06:38;24.30;99.60
29417;DHT22;28421;51.030;4.006;2022-07-10T13:09:25;24.30;98.60
29417;DHT22;28421;51.030;4.006;2022-07-10T13:11:51;24.60;98.60
29417;DHT22;28421;51.030;4.006;2022-07-10T13:14:18;24.70;99.00
29417;DHT22;28421;51.030;4.006;2022-07-10T13:16:44;25.10;97.80
29417;DHT22;28421;51.030;4.006;2022-07-10T13:19:10;24.60;98.30
29417;DHT22;28421;51.030;4.006;2022-07-10T13:24:05;24.60;98.30
29417;DHT22;28421;51.030;4.006;2022-07-10T13:26:31;24.50;97.70
29417;DHT22;28421;51.030;4.006;2022-07-10T13:28:58;24.70;97.90
29417;DHT22;28421;51.030;4.006;2022-07-10T13:36:17;24.70;98.60
29417;DHT22;28421;51.030;4.006;2022-07-10T13:41:09;23.60;99.10
29417;DHT22;28421;51.030;4.006;2022-07-10T13:43:35;23.60;99.90
29417;DHT22;28421;51.030;4.006;2022-07-10T13:46:01;23.90;99.90
29417;DHT22;28421;51.030;4.006;2022-07-10T13:48:28;24.00;98.50
29417;DHT22;28421;51.030;4.006;2022-07-10T13:50:54;23.70;99.90
29417;DHT22;28421;51.030;4.006;2022-07-10T13:53:20;23.50;99.90
29417;DHT22;28421;51.030;4.006;2022-07-10T13:55:47;23.50;99.90
29417;DHT22;28421;51.030;4.006;2022-07-10T13:58:13;23.90;99.90
29417;DHT22;28421;51.030;4.006;2022-07-10T14:00:40;24.10;99.70
29417;DHT22;28421;51.030;4.006;2022-07-10T14:03:06;24.40;98.70
29417;DHT22;28421;51.030;4.006;2022-07-10T14:05:33;24.60;98.10
29417;DHT22;28421;51.030;4.006;2022-07-10T14:07:59;24.20;99.90
29417;DHT22;28421;51.030;4.006;2022-07-10T14:10:25;24.20;99.60
29417;DHT22;28421;51.030;4.006;2022-07-10T14:12:53;24.30;99.90
29417;DHT22;28421;51.030;4.006;2022-07-10T14:15:19;24.30;99.00
29417;DHT22;28421;51.030;4.006;2022-07-10T14:17:45;24.70;98.90
29417;DHT22;28421;51.030;4.006;2022-07-10T14:20:11;24.80;98.50
29417;DHT22;28421;51.030;4.006;2022-07-10T14:22:37;24.60;99.50
29417;DHT22;28421;51.030;4.006;2022-07-10T14:25:06;24.60;99.10
29417;DHT22;28421;51.030;4.006;2022-07-10T14:27:34;24.70;99.20
29417;DHT22;28421;51.030;4.006;2022-07-10T14:30:00;24.60;98.60
29417;DHT22;28421;51.030;4.006;2022-07-10T14:32:26;24.40;98.50
29417;DHT22;28421;51.030;4.006;2022-07-10T14:34:51;24.60;98.60
29417;DHT22;28421;51.030;4.006;2022-07-10T14:37:17;24.30;98.70
29417;DHT22;28421;51.030;4.006;2022-07-10T14:39:43;24.10;99.10
29417;DHT22;28421;51.030;4.006;2022-07-10T14:42:09;23.90;99.50
29417;DHT22;28421;51.030;4.006;2022-07-10T14:44:35;24.30;99.20
29417;DHT22;28421;51.030;4.006;2022-07-10T14:47:01;24.20;98.90
29417;DHT22;28421;51.030;4.006;2022-07-10T14:49:27;24.10;99.30
29417;DHT22;28421;51.030;4.006;2022-07-10T14:51:53;24.30;98.80
29417;DHT22;28421;51.030;4.006;2022-07-10T14:54:20;24.40;99.00
29417;DHT22;28421;51.030;4.006;2022-07-10T14:56:46;24.90;99.00
29417;DHT22;28421;51.030;4.006;2022-07-10T14:59:11;24.70;98.50
29417;DHT22;28421;51.030;4.006;2022-07-10T15:01:37;24.70;98.60
29417;DHT22;28421;51.030;4.006;2022-07-10T15:04:03;24.90;97.70
29417;DHT22;28421;51.030;4.006;2022-07-10T15:06:28;25.10;98.20
29417;DHT22;28421;51.030;4.006;2022-07-10T15:08:54;24.70;97.70
29417;DHT22;28421;51.030;4.006;2022-07-10T15:11:20;24.20;99.20
29417;DHT22;28421;51.030;4.006;2022-07-10T15:13:48;24.00;98.50
29417;DHT22;28421;51.030;4.006;2022-07-10T15:16:16;24.00;99.00
29417;DHT22;28421;51.030;4.006;2022-07-10T15:18:42;24.40;98.70
29417;DHT22;28421;51.030;4.006;2022-07-10T15:21:08;24.60;98.70
29417;DHT22;28421;51.030;4.006;2022-07-10T15:23:34;24.90;98.60
29417;DHT22;28421;51.030;4.006;2022-07-10T15:26:00;24.90;97.60
29417;DHT22;28421;51.030;4.006;2022-07-10T15:28:26;24.60;98.00
29417;DHT22;28421;51.030;4.006;2022-07-10T15:30:52;24.80;98.60
29417;DHT22;28421;51.030;4.006;2022-07-10T15:33:17;25.00;97.80
29417;DHT22;28421;51.030;4.006;2022-07-10T15:35:43;25.00;97.50
29417;DHT22;28421;51.030;4.006;2022-07-10T15:38:09;24.60;97.60
29417;DHT22;28421;51.030;4.006;2022-07-10T15:40:35;24.50;97.90
29417;DHT22;28421;51.030;4.006;2022-07-10T15:43:00;24.60;98.10
29417;DHT22;28421;51.030;4.006;2022-07-10T15:45:27;24.60;97.90
29417;DHT22;28421;51.030;4.006;2022-07-10T15:47:53;24.80;97.50
29417;DHT22;28421;51.030;4.006;2022-07-10T15:50:19;24.70;97.00
29417;DHT22;28421;51.030;4.006;2022-07-10T15:52:45;24.70;97.50
29417;DHT22;28421;51.030;4.006;2022-07-10T15:55:11;24.70;97.40
29417;DHT22;28421;51.030;4.006;2022-07-10T15:57:44;24.00;98.00
29417;DHT22;28421;51.030;4.006;2022-07-10T16:00:10;24.40;98.00
29417;DHT22;28421;51.030;4.006;2022-07-10T16:02:37;24.70;97.80
29417;DHT22;28421;51.030;4.006;2022-07-10T16:05:04;24.80;97.50
29417;DHT22;28421;51.030;4.006;2022-07-10T16:09:57;23.80;99.90
29417;DHT22;28421;51.030;4.006;2022-07-10T16:12:23;23.70;97.90
29417;DHT22;28421;51.030;4.006;2022-07-10T16:14:48;24.10;97.70
29417;DHT22;28421;51.030;4.006;2022-07-10T16:17:16;24.10;97.60
29417;DHT22;28421;51.030;4.006;2022-07-10T16:19:42;24.30;97.40
29417;DHT22;28421;51.030;4.006;2022-07-10T16:22:08;24.20;99.90
29417;DHT22;28421;51.030;4.006;2022-07-10T16:27:20;24.50;97.40
29417;DHT22;28421;51.030;4.006;2022-07-10T16:29:45;24.90;96.70
29417;DHT22;28421;51.030;4.006;2022-07-10T16:37:03;25.30;99.90
29417;DHT22;28421;51.030;4.006;2022-07-10T16:41:55;25.20;99.90
29417;DHT22;28421;51.030;4.006;2022-07-10T16:44:21;25.40;96.20
29417;DHT22;28421;51.030;4.006;2022-07-10T16:46:47;25.10;96.30
29417;DHT22;28421;51.030;4.006;2022-07-10T16:49:12;25.00;95.80
29417;DHT22;28421;51.030;4.006;2022-07-10T16:51:38;24.80;96.80
29417;DHT22;28421;51.030;4.006;2022-07-10T16:54:03;25.00;96.30
29417;DHT22;28421;51.030;4.006;2022-07-10T16:56:29;25.20;96.00
29417;DHT22;28421;51.030;4.006;2022-07-10T16:58:55;24.40;96.50
29417;DHT22;28421;51.030;4.006;2022-07-10T17:01:20;24.40;96.60
29417;DHT22;28421;51.030;4.006;2022-07-10T17:03:46;24.60;96.30
29417;DHT22;28421;51.030;4.006;2022-07-10T17:06:12;24.70;99.90
29417;DHT22;28421;51.030;4.006;2022-07-10T17:08:37;24.40;97.10
29417;DHT22;28421;51.030;4.006;2022-07-10T17:11:03;24.30;97.30
29417;DHT22;28421;51.030;4.006;2022-07-10T17:13:29;24.00;96.80
29417;DHT22;28421;51.030;4.006;2022-07-10T17:15:55;24.30;96.30
29417;DHT22;28421;51.030;4.006;2022-07-10T17:18:20;24.00;96.80
29417;DHT22;28421;51.030;4.006;2022-07-10T17:20:48;24.10;96.70
29417;DHT22;28421;51.030;4.006;2022-07-10T17:23:14;24.00;97.20
29417;DHT22;28421;51.030;4.006;2022-07-10T17:25:39;24.50;96.80
29417;DHT22;28421;51.030;4.006;2022-07-10T17:28:05;24.60;96.40
29417;DHT22;28421;51.030;4.006;2022-07-10T17:30:31;24.50;96.00
29417;DHT22;28421;51.030;4.006;2022-07-10T17:32:57;24.50;96.30
29417;DHT22;28421;51.030;4.006;2022-07-10T17:35:22;24.20;96.60
29417;DHT22;28421;51.030;4.006;2022-07-10T17:37:48;24.20;96.30
29417;DHT22;28421;51.030;4.006;2022-07-10T17:40:14;23.70;96.80
29417;DHT22;28421;51.030;4.006;2022-07-10T17:42:39;23.50;97.40
29417;DHT22;28421;51.030;4.006;2022-07-10T17:45:08;23.50;97.70
29417;DHT22;28421;51.030;4.006;2022-07-10T17:47:34;23.60;97.00
29417;DHT22;28421;51.030;4.006;2022-07-10T17:50:00;23.70;97.20
29417;DHT22;28421;51.030;4.006;2022-07-10T17:52:25;23.70;97.10
29417;DHT22;28421;51.030;4.006;2022-07-10T17:54:51;23.60;97.00
29417;DHT22;28421;51.030;4.006;2022-07-10T17:57:17;23.70;97.30
29417;DHT22;28421;51.030;4.006;2022-07-10T17:59:43;23.50;97.70
29417;DHT22;28421;51.030;4.006;2022-07-10T18:02:08;23.20;97.80
29417;DHT22;28421;51.030;4.006;2022-07-10T18:04:34;23.20;98.00
29417;DHT22;28421;51.030;4.006;2022-07-10T18:07:01;23.20;97.80
29417;DHT22;28421;51.030;4.006;2022-07-10T18:09:26;23.20;97.90
29417;DHT22;28421;51.030;4.006;2022-07-10T18:11:53;23.30;97.70
29417;DHT22;28421;51.030;4.006;2022-07-10T18:14:19;23.00;97.70
29417;DHT22;28421;51.030;4.006;2022-07-10T18:16:45;23.00;98.10
29417;DHT22;28421;51.030;4.006;2022-07-10T18:19:11;22.90;98.60
29417;DHT22;28421;51.030;4.006;2022-07-10T18:21:36;22.80;98.30
29417;DHT22;28421;51.030;4.006;2022-07-10T18:24:02;22.90;98.80
29417;DHT22;28421;51.030;4.006;2022-07-10T18:26:30;23.00;98.50
29417;DHT22;28421;51.030;4.006;2022-07-10T18:28:57;22.90;98.90